sensor_id;sensor_type;location;lat;lon;timestamp;temperature;humidity
35894;DHT22;21994;48.204;16.516;2022-08-19T00:00:29;20.90;99.90
35894;DHT22;21994;48.204;16.516;2022-08-19T00:02:55;20.80;99.90
35894;DHT22;21994;48.204;16.516;2022-08-19T00:05:22;20.80;99.90
35894;DHT22;21994;48.204;16.516;2022-08-19T00:07:49;20.70;99.90
35894;DHT22;21994;48.204;16.516;2022-08-19T00:10:17;20.60;99.90
35894;DHT22;21994;48.204;16.516;2022-08-19T00:12:43;20.50;99.90
35894;DHT22;21994;48.204;16.516;2022-08-19T00:15:11;20.50;99.90
35894;DHT22;21994;48.204;16.516;2022-08-19T00:17:40;20.40;99.90
35894;DHT22;21994;48.204;16.516;2022-08-19T00:20:09;20.40;99.90
35894;DHT22;21994;48.204;16.516;2022-08-19T00:22:38;20.40;99.90
35894;DHT22;21994;48.204;16.516;2022-08-19T00:25:05;20.30;99.90
35894;DHT22;21994;48.204;16.516;2022-08-19T00:27:32;20.30;99.90
35894;DHT22;21994;48.204;16.516;2022-08-19T00:29:58;20.30;99.90
35894;DHT22;21994;48.204;16.516;2022-08-19T00:32:24;20.20;99.90
35894;DHT22;21994;48.204;16.516;2022-08-19T00:34:52;20.20;99.90
35894;DHT22;21994;48.204;16.516;2022-08-19T00:37:19;20.30;99.90
35894;DHT22;21994;48.204;16.516;2022-08-19T00:39:49;20.50;99.90
35894;DHT22;21994;48.204;16.516;2022-08-19T00:42:17;20.50;99.90
35894;DHT22;21994;48.204;16.516;2022-08-19T00:44:44;20.30;99.90
35894;DHT22;21994;48.204;16.516;2022-08-19T00:47:10;20.20;99.90
35894;DHT22;21994;48.204;16.516;2022-08-19T00:49:41;20.10;99.90
35894;DHT22;21994;48.204;16.516;2022-08-19T00:52:17;20.10;99.90
35894;DHT22;21994;48.204;16.516;2022-08-19T00:54:47;20.10;99.90
35894;DHT22;21994;48.204;16.516;2022-08-19T00:57:17;19.90;99.90
35894;DHT22;21994;48.204;16.516;2022-08-19T00:59:47;19.90;99.90
35894;DHT22;21994;48.204;16.516;2022-08-19T01:02:18;19.80;99.90
35894;DHT22;21994;48.204;16.516;2022-08-19T01:04:44;19.90;99.90
35894;DHT22;21994;48.204;16.516;2022-08-19T01:07:09;19.80;99.90
35894;DHT22;21994;48.204;16.516;2022-08-19T01:09:35;19.70;99.90
35894;DHT22;21994;48.204;16.516;2022-08-19T01:12:02;19.70;99.90
35894;DHT22;21994;48.204;16.516;2022-08-19T01:14:29;19.70;99.90
35894;DHT22;21994;48.204;16.516;2022-08-19T01:16:55;19.60;99.90
35894;DHT22;21994;48.204;16.516;2022-08-19T01:19:39;19.70;99.90
35894;DHT22;21994;48.204;16.516;2022-08-19T01:24:51;19.50;99.90
35894;DHT22;21994;48.204;16.516;2022-08-19T01:27:17;19.40;99.90
35894;DHT22;21994;48.204;16.516;2022-08-19T01:29:44;19.40;99.90
35894;DHT22;21994;48.204;16.516;2022-08-19T01:32:15;19.40;99.90
35894;DHT22;21994;48.204;16.516;2022-08-19T01:34:42;19.30;99.90
35894;DHT22;21994;48.204;16.516;2022-08-19T01:37:14;19.40;99.90
35894;DHT22;21994;48.204;16.516;2022-08-19T01:39:41;19.30;99.90
35894;DHT22;21994;48.204;16.516;2022-08-19T01:42:08;19.30;99.90
35894;DHT22;21994;48.204;16.516;2022-08-19T01:44:37;19.20;99.90
35894;DHT22;21994;48.204;16.516;2022-08-19T01:47:06;19.30;99.90
35894;DHT22;21994;48.204;16.516;2022-08-19T01:49:32;19.30;99.90
35894;DHT22;21994;48.204;16.516;2022-08-19T01:52:00;19.30;99.90
35894;DHT22;21994;48.204;16.516;2022-08-19T01:54:26;19.40;99.90
35894;DHT22;21994;48.204;16.516;2022-08-19T01:56:56;19.40;99.90
35894;DHT22;21994;48.204;16.516;2022-08-19T01:59:28;19.30;99.90
35894;DHT22;21994;48.204;16.516;2022-08-19T02:01:54;19.30;99.90
35894;DHT22;21994;48.204;16.516;2022-08-19T02:04:20;19.40;99.90
35894;DHT22;21994;48.204;16.516;2022-08-19T02:06:46;19.40;99.90
35894;DHT22;21994;48.204;16.516;2022-08-19T02:09:13;19.40;99.90
35894;DHT22;21994;48.204;16.516;2022-08-19T02:11:41;19.60;99.90
35894;DHT22;21994;48.204;16.516;2022-08-19T02:14:08;19.80;99.90
35894;DHT22;21994;48.204;16.516;2022-08-19T02:16:35;20.00;99.90
35894;DHT22;21994;48.204;16.516;2022-08-19T02:19:01;20.10;99.90
35894;DHT22;21994;48.204;16.516;2022-08-19T02:21:31;20.20;99.90
35894;DHT22;21994;48.204;16.516;2022-08-19T02:23:58;20.20;99.90
35894;DHT22;21994;48.204;16.516;2022-08-19T02:26:24;20.20;99.90
35894;DHT22;21994;48.204;16.516;2022-08-19T02:28:52;20.20;99.90
35894;DHT22;21994;48.204;16.516;2022-08-19T02:31:21;20.30;99.90
35894;DHT22;21994;48.204;16.516;2022-08-19T02:33:49;20.60;99.90
35894;DHT22;21994;48.204;16.516;2022-08-19T02:36:16;20.50;99.90
35894;DHT22;21994;48.204;16.516;2022-08-19T02:38:43;20.50;99.90
35894;DHT22;21994;48.204;16.516;2022-08-19T02:41:18;20.40;99.90
35894;DHT22;21994;48.204;16.516;2022-08-19T02:43:47;20.30;99.90
35894;DHT22;21994;48.204;16.516;2022-08-19T02:46:19;20.40;99.90
35894;DHT22;21994;48.204;16.516;2022-08-19T02:48:50;20.20;99.90
35894;DHT22;21994;48.204;16.516;2022-08-19T02:51:37;20.10;99.90
35894;DHT22;21994;48.204;16.516;2022-08-19T02:54:06;20.10;99.90
35894;DHT22;21994;48.204;16.516;2022-08-19T02:56:37;20.00;99.90
35894;DHT22;21994;48.204;16.516;2022-08-19T02:59:05;19.90;99.90
35894;DHT22;21994;48.204;16.516;2022-08-19T03:01:34;19.80;99.90
35894;DHT22;21994;48.204;16.516;2022-08-19T03:04:03;19.80;99.90
35894;DHT22;21994;48.204;16.516;2022-08-19T03:06:31;19.90;99.90
35894;DHT22;21994;48.204;16.516;2022-08-19T03:08:58;20.00;99.90
35894;DHT22;21994;48.204;16.516;2022-08-19T03:11:29;19.90;99.90
35894;DHT22;21994;48.204;16.516;2022-08-19T03:13:57;20.00;99.90
35894;DHT22;21994;48.204;16.516;2022-08-19T03:16:25;19.90;99.90
35894;DHT22;21994;48.204;16.516;2022-08-19T03:18:53;19.90;99.90
35894;DHT22;21994;48.204;16.516;2022-08-19T03:21:24;19.90;99.90
35894;DHT22;21994;48.204;16.516;2022-08-19T03:24:00;19.80;99.90
35894;DHT22;21994;48.204;16.516;2022-08-19T03:26:28;19.80;99.90
35894;DHT22;21994;48.204;16.516;2022-08-19T03:28:54;19.80;99.90
35894;DHT22;21994;48.204;16.516;2022-08-19T03:31:22;19.80;99.90
35894;DHT22;21994;48.204;16.516;2022-08-19T03:33:52;19.70;99.90
35894;DHT22;21994;48.204;16.516;2022-08-19T03:36:24;19.70;99.90
35894;DHT22;21994;48.204;16.516;2022-08-19T03:38:53;19.80;99.90
35894;DHT22;21994;48.204;16.516;2022-08-19T03:41:27;19.80;99.90
35894;DHT22;21994;48.204;16.516;2022-08-19T03:43:56;19.90;99.90
35894;DHT22;21994;48.204;16.516;2022-08-19T03:46:26;19.90;99.90
35894;DHT22;21994;48.204;16.516;2022-08-19T03:48:55;19.90;99.90
35894;DHT22;21994;48.204;16.516;2022-08-19T03:51:25;19.80;99.90
35894;DHT22;21994;48.204;16.516;2022-08-19T03:53:54;19.80;99.90
35894;DHT22;21994;48.204;16.516;2022-08-19T03:56:21;19.70;99.90
35894;DHT22;21994;48.204;16.516;2022-08-19T03:58:47;19.60;99.90
35894;DHT22;21994;48.204;16.516;2022-08-19T04:01:17;19.70;99.90
35894;DHT22;21994;48.204;16.516;2022-08-19T04:03:45;19.80;99.90
35894;DHT22;21994;48.204;16.516;2022-08-19T04:06:27;19.80;99.90
35894;DHT22;21994;48.204;16.516;2022-08-19T04:08:57;19.70;99.90
35894;DHT22;21994;48.204;16.516;2022-08-19T04:11:26;19.80;99.90
35894;DHT22;21994;48.204;16.516;2022-08-19T04:13:55;19.90;99.90
35894;DHT22;21994;48.204;16.516;2022-08-19T04:16:23;19.80;99.90
35894;DHT22;21994;48.204;16.516;2022-08-19T04:18:50;19.80;99.90
35894;DHT22;21994;48.204;16.516;2022-08-19T04:21:23;19.80;99.90
35894;DHT22;21994;48.204;16.516;2022-08-19T04:23:50;19.90;99.90
35894;DHT22;21994;48.204;16.516;2022-08-19T04:26:20;20.00;99.90
35894;DHT22;21994;48.204;16.516;2022-08-19T04:28:47;20.00;99.90
35894;DHT22;21994;48.204;16.516;2022-08-19T04:31:16;20.00;99.90
35894;DHT22;21994;48.204;16.516;2022-08-19T04:33:54;20.10;99.90
35894;DHT22;21994;48.204;16.516;2022-08-19T04:36:25;20.20;99.90
35894;DHT22;21994;48.204;16.516;2022-08-19T04:38:58;20.20;99.90
35894;DHT22;21994;48.204;16.516;2022-08-19T04:41:26;20.30;99.90
35894;DHT22;21994;48.204;16.516;2022-08-19T04:44:11;20.40;99.90
35894;DHT22;21994;48.204;16.516;2022-08-19T04:46:38;20.60;99.90
35894;DHT22;21994;48.204;16.516;2022-08-19T04:49:06;20.70;99.90
35894;DHT22;21994;48.204;16.516;2022-08-19T04:51:34;20.80;99.90
35894;DHT22;21994;48.204;16.516;2022-08-19T04:54:01;21.00;99.90
35894;DHT22;21994;48.204;16.516;2022-08-19T04:56:28;21.00;99.90
35894;DHT22;21994;48.204;16.516;2022-08-19T04:58:55;21.10;99.90
35894;DHT22;21994;48.204;16.516;2022-08-19T05:01:25;21.30;99.90
35894;DHT22;21994;48.204;16.516;2022-08-19T05:03:54;21.30;99.90
35894;DHT22;21994;48.204;16.516;2022-08-19T05:06:22;21.50;99.90
35894;DHT22;21994;48.204;16.516;2022-08-19T05:08:49;21.60;99.90
35894;DHT22;21994;48.204;16.516;2022-08-19T05:11:21;21.70;99.90
35894;DHT22;21994;48.204;16.516;2022-08-19T05:13:54;21.90;99.90
35894;DHT22;21994;48.204;16.516;2022-08-19T05:16:22;22.00;99.90
35894;DHT22;21994;48.204;16.516;2022-08-19T05:18:49;22.00;99.90
35894;DHT22;21994;48.204;16.516;2022-08-19T05:21:34;22.00;99.90
35894;DHT22;21994;48.204;16.516;2022-08-19T05:24:21;22.10;99.90
35894;DHT22;21994;48.204;16.516;2022-08-19T05:26:49;22.20;99.90
35894;DHT22;21994;48.204;16.516;2022-08-19T05:29:19;22.30;99.90
35894;DHT22;21994;48.204;16.516;2022-08-19T05:31:47;22.40;99.90
35894;DHT22;21994;48.204;16.516;2022-08-19T05:34:18;22.50;99.90
35894;DHT22;21994;48.204;16.516;2022-08-19T05:36:48;22.50;99.90
35894;DHT22;21994;48.204;16.516;2022-08-19T05:39:18;22.60;99.90
35894;DHT22;21994;48.204;16.516;2022-08-19T05:41:48;22.60;99.90
35894;DHT22;21994;48.204;16.516;2022-08-19T05:44:18;22.80;99.90
35894;DHT22;21994;48.204;16.516;2022-08-19T05:46:47;22.80;99.90
35894;DHT22;21994;48.204;16.516;2022-08-19T05:49:15;22.80;99.90
35894;DHT22;21994;48.204;16.516;2022-08-19T05:51:42;22.80;99.90
35894;DHT22;21994;48.204;16.516;2022-08-19T05:54:08;22.90;99.90
35894;DHT22;21994;48.204;16.516;2022-08-19T05:56:39;22.90;99.90
35894;DHT22;21994;48.204;16.516;2022-08-19T05:59:07;22.90;99.90
35894;DHT22;21994;48.204;16.516;2022-08-19T06:01:37;23.00;99.90
35894;DHT22;21994;48.204;16.516;2022-08-19T06:04:05;23.00;99.90
35894;DHT22;21994;48.204;16.516;2022-08-19T06:06:32;23.10;99.90
35894;DHT22;21994;48.204;16.516;2022-08-19T06:09:02;23.20;99.90
35894;DHT22;21994;48.204;16.516;2022-08-19T06:14:14;23.50;99.90
35894;DHT22;21994;48.204;16.516;2022-08-19T06:16:42;23.60;99.90
35894;DHT22;21994;48.204;16.516;2022-08-19T06:19:12;23.80;99.90
35894;DHT22;21994;48.204;16.516;2022-08-19T06:21:42;23.90;99.90
35894;DHT22;21994;48.204;16.516;2022-08-19T06:24:12;23.90;99.90
35894;DHT22;21994;48.204;16.516;2022-08-19T06:26:41;23.90;99.90
35894;DHT22;21994;48.204;16.516;2022-08-19T06:29:10;24.00;99.90
35894;DHT22;21994;48.204;16.516;2022-08-19T06:31:45;24.10;99.90
35894;DHT22;21994;48.204;16.516;2022-08-19T06:34:12;24.20;99.90
35894;DHT22;21994;48.204;16.516;2022-08-19T06:36:42;24.20;99.90
35894;DHT22;21994;48.204;16.516;2022-08-19T06:39:24;24.20;99.90
35894;DHT22;21994;48.204;16.516;2022-08-19T06:41:55;24.20;99.90
35894;DHT22;21994;48.204;16.516;2022-08-19T06:44:24;24.30;99.90
35894;DHT22;21994;48.204;16.516;2022-08-19T06:46:55;24.30;99.90
35894;DHT22;21994;48.204;16.516;2022-08-19T06:49:22;24.30;99.90
35894;DHT22;21994;48.204;16.516;2022-08-19T06:51:49;24.50;99.90
35894;DHT22;21994;48.204;16.516;2022-08-19T06:54:16;24.50;99.90
35894;DHT22;21994;48.204;16.516;2022-08-19T06:56:43;24.60;99.90
35894;DHT22;21994;48.204;16.516;2022-08-19T06:59:13;24.60;99.90
35894;DHT22;21994;48.204;16.516;2022-08-19T07:01:44;24.60;99.90
35894;DHT22;21994;48.204;16.516;2022-08-19T07:04:18;24.60;99.90
35894;DHT22;21994;48.204;16.516;2022-08-19T07:06:46;24.60;99.90
35894;DHT22;21994;48.204;16.516;2022-08-19T07:09:15;24.70;99.90
35894;DHT22;21994;48.204;16.516;2022-08-19T07:11:46;24.60;99.90
35894;DHT22;21994;48.204;16.516;2022-08-19T07:14:15;24.80;99.90
35894;DHT22;21994;48.204;16.516;2022-08-19T07:16:44;24.90;99.90
35894;DHT22;21994;48.204;16.516;2022-08-19T07:19:13;24.90;99.90
35894;DHT22;21994;48.204;16.516;2022-08-19T07:21:40;25.10;99.90
35894;DHT22;21994;48.204;16.516;2022-08-19T07:24:07;25.20;99.90
35894;DHT22;21994;48.204;16.516;2022-08-19T07:26:39;25.20;99.90
35894;DHT22;21994;48.204;16.516;2022-08-19T07:29:07;25.20;99.90
35894;DHT22;21994;48.204;16.516;2022-08-19T07:31:33;25.00;99.90
35894;DHT22;21994;48.204;16.516;2022-08-19T07:34:04;25.20;99.90
35894;DHT22;21994;48.204;16.516;2022-08-19T07:36:35;25.20;99.90
35894;DHT22;21994;48.204;16.516;2022-08-19T07:39:08;25.40;99.90
35894;DHT22;21994;48.204;16.516;2022-08-19T07:41:37;25.80;99.90
35894;DHT22;21994;48.204;16.516;2022-08-19T07:44:05;26.00;99.90
35894;DHT22;21994;48.204;16.516;2022-08-19T07:46:38;26.10;99.90
35894;DHT22;21994;48.204;16.516;2022-08-19T07:49:06;26.10;99.90
35894;DHT22;21994;48.204;16.516;2022-08-19T07:51:33;26.40;99.90
35894;DHT22;21994;48.204;16.516;2022-08-19T07:54:00;26.60;99.90
35894;DHT22;21994;48.204;16.516;2022-08-19T07:56:26;26.80;99.90
35894;DHT22;21994;48.204;16.516;2022-08-19T07:58:52;26.80;99.90
35894;DHT22;21994;48.204;16.516;2022-08-19T08:01:23;27.00;99.90
35894;DHT22;21994;48.204;16.516;2022-08-19T08:03:52;27.30;99.90
35894;DHT22;21994;48.204;16.516;2022-08-19T08:06:38;27.50;99.90
35894;DHT22;21994;48.204;16.516;2022-08-19T08:09:26;27.90;99.90
35894;DHT22;21994;48.204;16.516;2022-08-19T08:11:57;28.30;99.60
35894;DHT22;21994;48.204;16.516;2022-08-19T08:14:29;28.70;98.50
35894;DHT22;21994;48.204;16.516;2022-08-19T08:16:57;28.70;98.00
35894;DHT22;21994;48.204;16.516;2022-08-19T08:19:24;29.10;98.20
35894;DHT22;21994;48.204;16.516;2022-08-19T08:21:53;29.30;96.70
35894;DHT22;21994;48.204;16.516;2022-08-19T08:24:20;29.50;96.80
35894;DHT22;21994;48.204;16.516;2022-08-19T08:26:46;29.80;97.80
35894;DHT22;21994;48.204;16.516;2022-08-19T08:29:13;30.10;97.20
35894;DHT22;21994;48.204;16.516;2022-08-19T08:31:42;30.10;96.20
35894;DHT22;21994;48.204;16.516;2022-08-19T08:34:09;30.00;97.40
35894;DHT22;21994;48.204;16.516;2022-08-19T08:36:38;29.50;96.50
35894;DHT22;21994;48.204;16.516;2022-08-19T08:39:18;29.40;97.20
35894;DHT22;21994;48.204;16.516;2022-08-19T08:41:58;29.80;97.00
35894;DHT22;21994;48.204;16.516;2022-08-19T08:44:50;30.20;95.70
35894;DHT22;21994;48.204;16.516;2022-08-19T08:47:19;30.70;94.30
35894;DHT22;21994;48.204;16.516;2022-08-19T08:50:02;30.80;93.90
35894;DHT22;21994;48.204;16.516;2022-08-19T08:52:32;31.10;93.90
35894;DHT22;21994;48.204;16.516;2022-08-19T08:55:07;31.40;94.00
35894;DHT22;21994;48.204;16.516;2022-08-19T09:00:30;31.70;92.90
35894;DHT22;21994;48.204;16.516;2022-08-19T09:03:01;31.70;92.00
35894;DHT22;21994;48.204;16.516;2022-08-19T09:09:05;32.30;91.70
35894;DHT22;21994;48.204;16.516;2022-08-19T09:11:44;32.20;91.40
35894;DHT22;21994;48.204;16.516;2022-08-19T09:14:36;31.90;93.80
35894;DHT22;21994;48.204;16.516;2022-08-19T09:17:18;32.70;91.40
35894;DHT22;21994;48.204;16.516;2022-08-19T09:19:52;32.90;90.70
35894;DHT22;21994;48.204;16.516;2022-08-19T09:22:21;33.50;90.40
35894;DHT22;21994;48.204;16.516;2022-08-19T09:24:51;33.60;90.50
35894;DHT22;21994;48.204;16.516;2022-08-19T09:27:19;33.90;87.40
35894;DHT22;21994;48.204;16.516;2022-08-19T09:29:46;33.40;88.00
35894;DHT22;21994;48.204;16.516;2022-08-19T09:32:14;33.40;90.90
35894;DHT22;21994;48.204;16.516;2022-08-19T09:34:40;33.00;86.10
35894;DHT22;21994;48.204;16.516;2022-08-19T09:37:07;32.40;86.70
35894;DHT22;21994;48.204;16.516;2022-08-19T09:39:32;33.20;85.40
35894;DHT22;21994;48.204;16.516;2022-08-19T09:41:58;33.00;90.40
35894;DHT22;21994;48.204;16.516;2022-08-19T09:44:24;33.30;86.80
35894;DHT22;21994;48.204;16.516;2022-08-19T09:46:50;33.50;85.50
35894;DHT22;21994;48.204;16.516;2022-08-19T09:49:18;33.90;86.90
35894;DHT22;21994;48.204;16.516;2022-08-19T09:51:51;33.90;83.60
35894;DHT22;21994;48.204;16.516;2022-08-19T09:54:21;33.40;86.80
35894;DHT22;21994;48.204;16.516;2022-08-19T09:56:48;33.90;84.40
35894;DHT22;21994;48.204;16.516;2022-08-19T09:59:14;33.80;82.70
35894;DHT22;21994;48.204;16.516;2022-08-19T10:01:40;33.70;85.00
35894;DHT22;21994;48.204;16.516;2022-08-19T10:04:06;33.70;84.10
35894;DHT22;21994;48.204;16.516;2022-08-19T10:06:35;33.90;85.30
35894;DHT22;21994;48.204;16.516;2022-08-19T10:09:04;34.30;83.00
35894;DHT22;21994;48.204;16.516;2022-08-19T10:11:33;34.80;85.00
35894;DHT22;21994;48.204;16.516;2022-08-19T10:14:00;35.50;82.60
35894;DHT22;21994;48.204;16.516;2022-08-19T10:16:27;36.10;81.20
35894;DHT22;21994;48.204;16.516;2022-08-19T10:18:54;36.20;79.20
35894;DHT22;21994;48.204;16.516;2022-08-19T10:21:26;35.90;77.50
35894;DHT22;21994;48.204;16.516;2022-08-19T10:23:58;35.50;79.70
35894;DHT22;21994;48.204;16.516;2022-08-19T10:26:28;34.70;77.70
35894;DHT22;21994;48.204;16.516;2022-08-19T10:28:56;34.40;77.70
35894;DHT22;21994;48.204;16.516;2022-08-19T10:31:28;33.60;81.20
35894;DHT22;21994;48.204;16.516;2022-08-19T10:33:56;33.20;80.60
35894;DHT22;21994;48.204;16.516;2022-08-19T10:36:28;32.40;84.10
35894;DHT22;21994;48.204;16.516;2022-08-19T10:38:57;32.00;83.30
35894;DHT22;21994;48.204;16.516;2022-08-19T10:41:30;31.40;86.20
35894;DHT22;21994;48.204;16.516;2022-08-19T10:44:00;31.10;89.60
35894;DHT22;21994;48.204;16.516;2022-08-19T10:46:36;31.00;87.30
35894;DHT22;21994;48.204;16.516;2022-08-19T10:49:04;31.20;86.70
35894;DHT22;21994;48.204;16.516;2022-08-19T10:51:31;31.30;88.00
35894;DHT22;21994;48.204;16.516;2022-08-19T10:54:16;31.30;87.10
35894;DHT22;21994;48.204;16.516;2022-08-19T10:56:42;31.30;85.40
35894;DHT22;21994;48.204;16.516;2022-08-19T10:59:26;31.20;85.80
35894;DHT22;21994;48.204;16.516;2022-08-19T11:01:59;30.70;90.50
35894;DHT22;21994;48.204;16.516;2022-08-19T11:04:26;30.60;87.70
35894;DHT22;21994;48.204;16.516;2022-08-19T11:06:52;30.50;88.70
35894;DHT22;21994;48.204;16.516;2022-08-19T11:09:20;30.10;88.60
35894;DHT22;21994;48.204;16.516;2022-08-19T11:11:50;29.80;89.80
35894;DHT22;21994;48.204;16.516;2022-08-19T11:14:19;29.50;94.10
35894;DHT22;21994;48.204;16.516;2022-08-19T11:16:48;29.10;96.80
35894;DHT22;21994;48.204;16.516;2022-08-19T11:19:15;28.60;97.90
35894;DHT22;21994;48.204;16.516;2022-08-19T11:21:47;28.20;99.10
35894;DHT22;21994;48.204;16.516;2022-08-19T11:24:17;27.60;97.60
35894;DHT22;21994;48.204;16.516;2022-08-19T11:26:46;27.10;98.10
35894;DHT22;21994;48.204;16.516;2022-08-19T11:29:19;26.70;99.90
35894;DHT22;21994;48.204;16.516;2022-08-19T11:31:47;26.50;99.90
35894;DHT22;21994;48.204;16.516;2022-08-19T11:34:19;26.50;99.90
35894;DHT22;21994;48.204;16.516;2022-08-19T11:36:47;26.80;99.90
35894;DHT22;21994;48.204;16.516;2022-08-19T11:39:16;27.20;99.90
35894;DHT22;21994;48.204;16.516;2022-08-19T11:41:43;27.30;99.90
35894;DHT22;21994;48.204;16.516;2022-08-19T11:44:10;27.60;99.90
35894;DHT22;21994;48.204;16.516;2022-08-19T11:46:37;28.00;99.90
35894;DHT22;21994;48.204;16.516;2022-08-19T11:49:04;28.50;99.90
35894;DHT22;21994;48.204;16.516;2022-08-19T11:51:33;28.90;98.80
35894;DHT22;21994;48.204;16.516;2022-08-19T11:54:00;29.20;99.40
35894;DHT22;21994;48.204;16.516;2022-08-19T11:56:27;29.50;98.90
35894;DHT22;21994;48.204;16.516;2022-08-19T11:58:54;29.90;99.40
35894;DHT22;21994;48.204;16.516;2022-08-19T12:01:24;30.20;99.70
35894;DHT22;21994;48.204;16.516;2022-08-19T12:03:52;30.50;97.10
35894;DHT22;21994;48.204;16.516;2022-08-19T12:06:28;30.60;97.00
35894;DHT22;21994;48.204;16.516;2022-08-19T12:09:00;30.70;97.00
35894;DHT22;21994;48.204;16.516;2022-08-19T12:11:30;30.60;96.10
35894;DHT22;21994;48.204;16.516;2022-08-19T12:13:56;30.40;95.50
35894;DHT22;21994;48.204;16.516;2022-08-19T12:16:25;30.30;95.00
35894;DHT22;21994;48.204;16.516;2022-08-19T12:18:52;30.30;96.80
35894;DHT22;21994;48.204;16.516;2022-08-19T12:21:23;30.30;95.30
35894;DHT22;21994;48.204;16.516;2022-08-19T12:23:56;30.20;94.60
35894;DHT22;21994;48.204;16.516;2022-08-19T12:26:24;30.50;96.20
35894;DHT22;21994;48.204;16.516;2022-08-19T12:28:51;30.80;95.70
35894;DHT22;21994;48.204;16.516;2022-08-19T12:31:18;31.10;93.50
35894;DHT22;21994;48.204;16.516;2022-08-19T12:33:45;31.00;92.80
35894;DHT22;21994;48.204;16.516;2022-08-19T12:36:13;30.80;92.60
35894;DHT22;21994;48.204;16.516;2022-08-19T12:38:41;30.60;93.30
35894;DHT22;21994;48.204;16.516;2022-08-19T12:41:11;30.50;93.10
35894;DHT22;21994;48.204;16.516;2022-08-19T12:43:38;30.30;93.70
35894;DHT22;21994;48.204;16.516;2022-08-19T12:46:05;30.10;94.10
35894;DHT22;21994;48.204;16.516;2022-08-19T12:48:33;30.00;94.20
35894;DHT22;21994;48.204;16.516;2022-08-19T12:50:59;29.70;94.30
35894;DHT22;21994;48.204;16.516;2022-08-19T12:53:25;29.60;94.80
35894;DHT22;21994;48.204;16.516;2022-08-19T12:55:55;29.50;95.10
35894;DHT22;21994;48.204;16.516;2022-08-19T12:58:22;29.40;95.30
35894;DHT22;21994;48.204;16.516;2022-08-19T13:00:48;29.30;95.30
35894;DHT22;21994;48.204;16.516;2022-08-19T13:03:14;29.30;96.20
35894;DHT22;21994;48.204;16.516;2022-08-19T13:05:41;29.30;96.50
35894;DHT22;21994;48.204;16.516;2022-08-19T13:08:07;29.50;96.00
35894;DHT22;21994;48.204;16.516;2022-08-19T13:10:34;29.70;96.10
35894;DHT22;21994;48.204;16.516;2022-08-19T13:13:03;29.80;95.50
35894;DHT22;21994;48.204;16.516;2022-08-19T13:15:37;29.70;96.10
35894;DHT22;21994;48.204;16.516;2022-08-19T13:18:08;29.50;97.30
35894;DHT22;21994;48.204;16.516;2022-08-19T13:20:36;29.50;97.10
35894;DHT22;21994;48.204;16.516;2022-08-19T13:23:03;29.50;95.40
35894;DHT22;21994;48.204;16.516;2022-08-19T13:25:30;29.50;94.80
35894;DHT22;21994;48.204;16.516;2022-08-19T13:27:56;29.50;95.30
35894;DHT22;21994;48.204;16.516;2022-08-19T13:30:23;29.40;94.50
35894;DHT22;21994;48.204;16.516;2022-08-19T13:33:08;29.20;95.10
35894;DHT22;21994;48.204;16.516;2022-08-19T13:35:41;29.00;95.00
35894;DHT22;21994;48.204;16.516;2022-08-19T13:38:12;28.80;94.10
35894;DHT22;21994;48.204;16.516;2022-08-19T13:40:40;28.70;94.30
35894;DHT22;21994;48.204;16.516;2022-08-19T13:43:07;28.70;94.40
35894;DHT22;21994;48.204;16.516;2022-08-19T13:45:35;28.50;95.80
35894;DHT22;21994;48.204;16.516;2022-08-19T13:48:04;28.20;96.20
35894;DHT22;21994;48.204;16.516;2022-08-19T13:50:38;28.00;97.60
35894;DHT22;21994;48.204;16.516;2022-08-19T13:53:08;27.70;98.90
35894;DHT22;21994;48.204;16.516;2022-08-19T13:55:37;27.50;99.20
35894;DHT22;21994;48.204;16.516;2022-08-19T13:58:03;27.30;99.90
35894;DHT22;21994;48.204;16.516;2022-08-19T14:00:34;27.10;99.50
35894;DHT22;21994;48.204;16.516;2022-08-19T14:03:02;27.00;99.90
35894;DHT22;21994;48.204;16.516;2022-08-19T14:05:29;26.90;99.90
35894;DHT22;21994;48.204;16.516;2022-08-19T14:07:57;26.90;99.90
35894;DHT22;21994;48.204;16.516;2022-08-19T14:10:24;26.90;99.90
35894;DHT22;21994;48.204;16.516;2022-08-19T14:12:55;26.90;99.90
35894;DHT22;21994;48.204;16.516;2022-08-19T14:15:24;27.10;99.90
35894;DHT22;21994;48.204;16.516;2022-08-19T14:17:51;27.20;99.90
35894;DHT22;21994;48.204;16.516;2022-08-19T14:20:16;27.30;99.90
35894;DHT22;21994;48.204;16.516;2022-08-19T14:22:44;27.50;99.70
35894;DHT22;21994;48.204;16.516;2022-08-19T14:25:14;27.70;99.80
35894;DHT22;21994;48.204;16.516;2022-08-19T14:27:44;27.90;99.40
35894;DHT22;21994;48.204;16.516;2022-08-19T14:30:13;27.90;98.10
35894;DHT22;21994;48.204;16.516;2022-08-19T14:32:41;28.10;98.30
35894;DHT22;21994;48.204;16.516;2022-08-19T14:35:09;28.10;98.60
35894;DHT22;21994;48.204;16.516;2022-08-19T14:37:38;28.10;98.20
35894;DHT22;21994;48.204;16.516;2022-08-19T14:40:04;28.10;97.90
35894;DHT22;21994;48.204;16.516;2022-08-19T14:42:30;28.00;98.00
35894;DHT22;21994;48.204;16.516;2022-08-19T14:45:00;28.00;98.60
35894;DHT22;21994;48.204;16.516;2022-08-19T14:47:26;28.00;98.00
35894;DHT22;21994;48.204;16.516;2022-08-19T14:49:53;27.90;98.10
35894;DHT22;21994;48.204;16.516;2022-08-19T14:52:19;28.00;98.00
35894;DHT22;21994;48.204;16.516;2022-08-19T14:54:45;28.00;96.90
35894;DHT22;21994;48.204;16.516;2022-08-19T14:57:13;28.00;96.30
35894;DHT22;21994;48.204;16.516;2022-08-19T14:59:41;28.10;96.40
35894;DHT22;21994;48.204;16.516;2022-08-19T15:02:08;28.10;96.20
35894;DHT22;21994;48.204;16.516;2022-08-19T15:04:34;28.00;96.30
35894;DHT22;21994;48.204;16.516;2022-08-19T15:07:00;28.10;95.70
35894;DHT22;21994;48.204;16.516;2022-08-19T15:09:27;28.20;96.90
35894;DHT22;21994;48.204;16.516;2022-08-19T15:11:53;28.30;95.30
35894;DHT22;21994;48.204;16.516;2022-08-19T15:14:19;28.40;94.80
35894;DHT22;21994;48.204;16.516;2022-08-19T15:16:46;28.60;94.00
35894;DHT22;21994;48.204;16.516;2022-08-19T15:19:12;28.60;94.40
35894;DHT22;21994;48.204;16.516;2022-08-19T15:21:38;28.80;94.30
35894;DHT22;21994;48.204;16.516;2022-08-19T15:24:04;29.00;93.70
35894;DHT22;21994;48.204;16.516;2022-08-19T15:26:31;29.10;93.50
35894;DHT22;21994;48.204;16.516;2022-08-19T15:28:58;29.20;93.10
35894;DHT22;21994;48.204;16.516;2022-08-19T15:31:25;29.30;94.20
35894;DHT22;21994;48.204;16.516;2022-08-19T15:33:53;29.50;93.50
35894;DHT22;21994;48.204;16.516;2022-08-19T15:36:23;29.60;92.60
35894;DHT22;21994;48.204;16.516;2022-08-19T15:38:49;29.70;92.50